M I D A S
Marine Information and Data Acquisition System
Tripno 293 of the Zeeleeuw from 2002-07-05 05:22:39 to 2002-07-05 12:30:10
Back to CruiseResearch ActivitiesStationsMapUnderway DataData graphs

EquipmentUnitsComment
TimeDGPSUTC
LatitudeDGPSDM.mWGS84
LongitudeDGPSDM.mWGS84
HeadingGyrodeg 
SOGDGPSknotsSpeed over ground
COGDGPSdegCourse over ground
DepthEcho soundermeters200 kHz
Missing or incorrect values are displayed as -999
Navigation data collected by the RV Zeeleeuw from 2002-07-05 05:22:39 to 2002-07-05 12:30:10
Time Latitude Longitude Heading SOG COG Depth
2002-07-05 05:23:45 51°14.354 2°55.076 311.3 10 308 11.1
2002-07-05 05:24:44 51°14.455 2°54.831 286.7 11.7 286.1 10.6
2002-07-05 05:25:43 51°14.434 2°54.528 257.3 11.9 255.8 10.5
2002-07-05 05:26:43 51°14.373 2°54.229 246.5 11.7 246.3 9.9
2002-07-05 05:27:43 51°14.28 2°53.953 243 11.9 241.2 9.9
2002-07-05 05:28:43 51°14.187 2°53.675 244.5 11.9 242.9 10.1
2002-07-05 05:29:43 51°14.097 2°53.393 244.8 11.9 243.4 10.3
2002-07-05 05:30:43 51°14.007 2°53.106 245 12.6 243.4 10.8
2002-07-05 05:31:44 51°13.907 2°52.785 244.2 13.5 242.5 11
2002-07-05 05:32:43 51°13.803 2°52.473 244 13.6 242.3 11.2
2002-07-05 05:33:43 51°13.696 2°52.155 243.3 13.6 241.6 11.2
2002-07-05 05:34:43 51°13.59 2°51.837 243.2 13.5 241.2 11.4
2002-07-05 05:35:43 51°13.48 2°51.522 242.7 13.6 241.3 11.6
2002-07-05 05:36:43 51°13.37 2°51.206 242.7 13.6 240.8 11.8
2002-07-05 05:37:44 51°13.261 2°50.884 243.3 13.6 241.4 11.9
2002-07-05 05:38:44 51°13.152 2°50.569 242.7 13.5 241 12
2002-07-05 05:39:43 51°13.046 2°50.261 243.2 13.4 241.2 12.2
2002-07-05 05:40:43 51°12.94 2°49.948 243 13.5 241.2 12.3
2002-07-05 05:41:44 51°12.83 2°49.631 242.3 13.4 240.7 12.4
2002-07-05 05:42:44 51°12.722 2°49.319 242.3 13.4 240.4 12.6
2002-07-05 05:43:44 51°12.616 2°49.006 243.5 13.4 241.7 12.8
2002-07-05 05:44:44 51°12.509 2°48.693 242.7 13.4 240.9 13
2002-07-05 05:45:43 51°12.403 2°48.388 243.8 13.4 241.6 13.1
2002-07-05 05:46:43 51°12.298 2°48.076 242.7 13.4 240.7 13.2
2002-07-05 05:47:43 51°12.191 2°47.766 243.3 13.3 241.4 13.3
2002-07-05 05:48:44 51°12.08 2°47.454 241.3 13.3 239.8 13.4
2002-07-05 05:49:43 51°11.977 2°47.147 244.5 13.3 243 13.4
2002-07-05 05:50:43 51°11.876 2°46.833 245.5 13.3 243.7 13.4
2002-07-05 05:51:44 51°11.778 2°46.51 246 13.3 244.3 13.6
2002-07-05 05:52:44 51°11.689 2°46.187 248.3 13.3 246.6 13.5
2002-07-05 05:53:43 51°11.603 2°45.869 248 13.3 246.5 13.4
2002-07-05 05:54:43 51°11.516 2°45.545 248.2 13.3 246.6 13.4
2002-07-05 05:55:43 51°11.429 2°45.221 248.2 13.2 246.5 13.3
2002-07-05 05:56:43 51°11.341 2°44.899 248 13.2 246.6 13.1
2002-07-05 05:57:43 51°11.259 2°44.574 250.5 13.3 248.8 13.3
2002-07-05 05:58:43 51°11.18 2°44.248 250 13.2 248.6 13.2
2002-07-05 05:59:44 51°11.099 2°43.918 250 13.2 248 13.2
2002-07-05 06:00:44 51°11.019 2°43.593 249.7 13.1 248 13.2
2002-07-05 06:01:43 51°10.941 2°43.276 249.8 13.1 248.4 13.2
2002-07-05 06:02:43 51°10.86 2°42.954 250.8 13.1 248.8 13.1
2002-07-05 06:03:43 51°10.782 2°42.63 252.8 13.1 250.9 13.1
2002-07-05 06:04:43 51°10.714 2°42.302 253.2 13.1 251.5 13.1
2002-07-05 06:05:43 51°10.646 2°41.973 253.5 13 251.8 13.2
2002-07-05 06:06:43 51°10.577 2°41.646 253.7 13 252.3 13
2002-07-05 06:07:43 51°10.508 2°41.319 252.7 13 250.9 13.2
2002-07-05 06:08:42 51°10.44 2°40.997 253.5 13 251.6 13.5
2002-07-05 06:09:43 51°10.371 2°40.665 253.2 12.9 252 13.4
2002-07-05 06:10:43 51°10.302 2°40.341 251 12.8 249.7 13.7
2002-07-05 06:11:43 51°10.223 2°40.025 250 12.9 248.1 13.8
2002-07-05 06:12:43 51°10.145 2°39.707 249.8 12.9 248.2 13.9
2002-07-05 06:13:43 51°10.065 2°39.39 249.7 12.9 248.2 14.2
2002-07-05 06:14:43 51°9.985 2°39.073 249.7 12.9 248.1 14.5
2002-07-05 06:15:42 51°9.907 2°38.76 249.3 12.9 248.1 14.8
2002-07-05 06:16:43 51°9.826 2°38.437 250.2 12.9 248.5 15.1
2002-07-05 06:17:43 51°9.745 2°38.118 249 13 247.1 15.4
2002-07-05 06:18:43 51°9.663 2°37.801 249.3 13 247.8 15.7
2002-07-05 06:19:43 51°9.58 2°37.484 248.7 12.9 247.2 16.1
2002-07-05 06:20:43 51°9.497 2°37.168 248.5 12.9 246.9 16.7
2002-07-05 06:21:43 51°9.414 2°36.854 249.2 12.5 247.5 17
2002-07-05 06:22:44 51°9.34 2°36.57 248.3 10.9 247 17.5
2002-07-05 06:23:43 51°9.31 2°36.36 269.8 6.7 271.3 17.6
2002-07-05 06:24:43 51°9.303 2°36.234 252.3 3.1 255.9 17.6
2002-07-05 06:25:43 51°9.291 2°36.201 233.2 1.1 227.3 17.6
2002-07-05 06:26:43 51°9.282 2°36.193 226.8 0.4 191 17.6
2002-07-05 06:27:43 51°9.28 2°36.197 227.5 0.4 71.3 17.7
2002-07-05 06:28:44 51°9.291 2°36.224 235.2 1.6 53.9 17.7
2002-07-05 06:29:43 51°9.309 2°36.265 249.3 1.8 59.5 17.7
2002-07-05 06:30:43 51°9.318 2°36.279 253.7 0.5 305.1 17.6
2002-07-05 06:31:43 51°9.317 2°36.254 245.2 0.9 255.9 17.7
2002-07-05 06:32:43 51°9.314 2°36.24 239.2 0.3 241.1 17.6
2002-07-05 06:33:43 51°9.314 2°36.237 235.8 0.1 81.3 17.7
2002-07-05 06:34:43 51°9.315 2°36.243 231.2 0.3 69.8 17.7
2002-07-05 06:35:43 51°9.317 2°36.253 229 0.2 101.2 17.7
2002-07-05 06:36:43 51°9.306 2°36.243 228.8 1.2 215 17.7
2002-07-05 06:37:43 51°9.299 2°36.217 255.8 0.9 268.8 17.7
2002-07-05 06:38:43 51°9.303 2°36.199 265.2 0.7 311.6 17.6
2002-07-05 06:39:43 51°9.313 2°36.19 267.2 0.7 340.7 17.6
2002-07-05 06:40:43 51°9.324 2°36.189 265 0.7 20.8 17.7
2002-07-05 06:41:43 51°9.335 2°36.205 264 0.9 41.7 17.6
2002-07-05 06:42:43 51°9.34 2°36.207 231.5 0.2 207.4 17.8
2002-07-05 06:43:44 51°9.328 2°36.212 200.3 1.2 164.2 17.6
2002-07-05 06:44:43 51°9.305 2°36.227 185 1.7 147.1 17.8
2002-07-05 06:45:43 51°9.289 2°36.264 159.5 1.4 89.8 17.8
2002-07-05 06:46:44 51°9.31 2°36.291 157.8 1.6 43.8 -999
2002-07-05 06:47:44 51°9.315 2°36.346 102.3 3.7 87.8 17.8
2002-07-05 06:48:43 51°9.372 2°36.531 54.8 9.9 54.6 17.8
2002-07-05 06:49:43 51°9.49 2°36.782 53.3 14.1 51.9 17.7
2002-07-05 06:50:43 51°9.624 2°37.115 64 15.3 61.6 17.8
2002-07-05 06:51:43 51°9.748 2°37.465 63.8 15.2 60.8 18.2
2002-07-05 06:52:43 51°9.864 2°37.823 65.8 15.3 62.9 17.9
2002-07-05 06:53:42 51°9.975 2°38.18 66.3 15.4 63.3 18
2002-07-05 06:54:44 51°10.088 2°38.553 66.7 15.2 63.8 17
2002-07-05 06:55:43 51°10.195 2°38.91 68.7 15.2 65.1 16.9
2002-07-05 06:56:44 51°10.307 2°39.283 67.5 15.3 64.5 16.8
2002-07-05 06:57:43 51°10.414 2°39.643 67.8 15.2 64.8 16
2002-07-05 06:58:43 51°10.523 2°40.009 66.5 15.3 63.8 15.7
2002-07-05 06:59:43 51°10.631 2°40.377 69.3 15.3 65.9 15.2
2002-07-05 07:00:43 51°10.74 2°40.746 67.2 15.4 64.3 14.7
2002-07-05 07:01:44 51°10.851 2°41.122 69.2 15.5 65.9 14.2
2002-07-05 07:02:43 51°10.96 2°41.489 68 15.7 64.9 14
2002-07-05 07:03:44 51°11.055 2°41.817 68.8 11 65.9 14.1
2002-07-05 07:04:43 51°11.122 2°42.003 51.2 6.8 52.5 14
2002-07-05 07:05:43 51°11.165 2°42.142 94 7 84.3 13.9
2002-07-05 07:06:43 51°11.106 2°42.254 184.7 4.1 162.4 14.3
2002-07-05 07:07:43 51°11.068 2°42.202 264 2.5 267.3 14.6
2002-07-05 07:08:44 51°11.089 2°42.152 293.8 2.3 315.3 14.4
2002-07-05 07:09:43 51°11.103 2°42.121 265.5 1 300.9 14.4
2002-07-05 07:10:43 51°11.108 2°42.111 252.8 0.3 322.9 14.1
2002-07-05 07:11:44 51°11.107 2°42.107 226.2 0.4 180.4 14.2
2002-07-05 07:12:44 51°11.098 2°42.105 235.2 0.5 210.9 14.5
2002-07-05 07:13:43 51°11.096 2°42.09 253.8 0.7 275.8 14.3
2002-07-05 07:14:43 51°11.095 2°42.08 237.2 0.2 230.3 14.3
2002-07-05 07:15:44 51°11.094 2°42.077 246.3 0.1 310.7 14.5
2002-07-05 07:16:44 51°11.097 2°42.073 250.8 0.3 324 14.3
2002-07-05 07:17:43 51°11.101 2°42.07 241.5 0.2 354.2 14.3
2002-07-05 07:18:44 51°11.102 2°42.076 225.3 0.3 88.9 14.3
2002-07-05 07:19:44 51°11.102 2°42.087 214.5 0.5 83.8 14.3
2002-07-05 07:20:44 51°11.101 2°42.102 201.8 0.8 141.8 14.5
2002-07-05 07:21:43 51°11.045 2°42.194 127.2 10.2 120.5 14.5
2002-07-05 07:22:44 51°11.1 2°42.521 47.2 14.5 46.9 14.5
2002-07-05 07:23:44 51°11.315 2°42.706 24.5 14.9 24.3 13.6
2002-07-05 07:24:44 51°11.539 2°42.873 25.8 14.9 24.9 12.9
2002-07-05 07:25:44 51°11.76 2°43.044 27.3 14.7 26 11.1
2002-07-05 07:26:44 51°11.981 2°43.216 29 14.9 27 11.3
2002-07-05 07:27:44 51°12.186 2°43.441 42.2 15.1 39.6 12.1
2002-07-05 07:28:44 51°12.376 2°43.703 42.5 15 40.1 12.9
2002-07-05 07:29:45 51°12.568 2°43.966 43.5 15 41.8 14.3
2002-07-05 07:30:45 51°12.752 2°44.237 43 15.1 41.2 14.5
2002-07-05 07:31:44 51°12.937 2°44.496 43.2 15 41 14.3
2002-07-05 07:32:44 51°13.123 2°44.763 44 15 41.8 14.1
2002-07-05 07:33:44 51°13.309 2°45.029 43.7 15.1 41.6 13.3
2002-07-05 07:34:44 51°13.493 2°45.293 45.5 14.8 42.8 11.5
2002-07-05 07:35:44 51°13.676 2°45.556 44.2 14.8 41.6 10.4
2002-07-05 07:36:44 51°13.858 2°45.822 46.7 14.9 43.7 11.2
2002-07-05 07:37:44 51°14.032 2°46.109 49.2 15 46.4 12.1
2002-07-05 07:38:44 51°14.169 2°46.441 67.5 15.1 63.5 12.3
2002-07-05 07:39:44 51°14.282 2°46.794 67.8 15 64.2 11.9
2002-07-05 07:40:44 51°14.384 2°47.152 72 14.8 68 11.8
2002-07-05 07:41:43 51°14.476 2°47.513 70.8 14.9 66.9 12.5
2002-07-05 07:42:44 51°14.575 2°47.88 71.2 14.8 67.4 12.9
2002-07-05 07:43:44 51°14.675 2°48.242 70.5 15 66.6 13.8
2002-07-05 07:44:45 51°14.778 2°48.614 71 15 66.7 14.3
2002-07-05 07:45:44 51°14.877 2°48.971 70.3 15 66.5 14.7
2002-07-05 07:46:44 51°14.971 2°49.339 71.2 15.1 67.2 14.8
2002-07-05 07:47:45 51°15.07 2°49.712 72.3 14.9 67.7 14.9
2002-07-05 07:48:44 51°15.16 2°50.077 72.7 15 68.4 14.9
2002-07-05 07:49:43 51°15.246 2°50.444 75.3 15 70.8 14.9
2002-07-05 07:50:43 51°15.329 2°50.816 73.8 14.9 69.5 14.9
2002-07-05 07:51:44 51°15.412 2°51.198 76.7 15.1 72.1 14.8
2002-07-05 07:52:44 51°15.497 2°51.575 72.7 15.1 68.6 14.6
2002-07-05 07:53:44 51°15.587 2°51.949 73.8 15.1 69.5 14.4
2002-07-05 07:54:45 51°15.676 2°52.328 73.7 14.9 68.8 14.2
2002-07-05 07:55:43 51°15.761 2°52.688 74 15 69.2 14.1
2002-07-05 07:56:42 51°15.847 2°53.053 73.5 15 68.8 13.9
2002-07-05 07:57:43 51°15.935 2°53.434 76.5 15.1 71.4 13.7
2002-07-05 07:58:45 51°16.025 2°53.823 74.7 15.1 70.3 13.6
2002-07-05 07:59:45 51°16.098 2°54.159 83.7 10.4 76.3 13.5
2002-07-05 08:00:45 51°16.118 2°54.343 84.3 5.7 75.4 13.5
2002-07-05 08:01:44 51°16.147 2°54.456 67.2 4.2 61.4 13.5
2002-07-05 08:02:44 51°16.183 2°54.535 51.5 3.4 50.6 13.4
2002-07-05 08:03:44 51°16.206 2°54.576 58.5 1.3 45.3 13.4
2002-07-05 08:04:45 51°16.216 2°54.586 56 0.4 11.2 13.4
2002-07-05 08:05:44 51°16.216 2°54.577 53.5 0.8 248.6 13.4
2002-07-05 08:06:46 51°16.203 2°54.547 46.5 1.6 227.3 -999
2002-07-05 08:07:46 51°16.179 2°54.516 41.7 2 215.2 -999
2002-07-05 08:08:44 51°16.152 2°54.487 40 2.1 213.3 -999
2002-07-05 08:09:44 51°16.157 2°54.485 357.2 3.8 10.2 13.4
2002-07-05 08:10:45 51°16.187 2°54.37 239.7 6.4 240.5 13.5
2002-07-05 08:11:44 51°16.121 2°54.284 231.3 2.4 223 13.6
2002-07-05 08:12:45 51°16.119 2°54.258 267.8 0.9 312.8 13.6
2002-07-05 08:13:45 51°16.134 2°54.246 275.7 1 340.9 13.6
2002-07-05 08:14:45 51°16.15 2°54.24 272.8 1 353.7 13.6
2002-07-05 08:15:45 51°16.165 2°54.24 269.8 0.9 4.9 13.7
2002-07-05 08:16:45 51°16.181 2°54.245 269.7 1 13.8 13.7
2002-07-05 08:17:45 51°16.197 2°54.254 269.8 1.1 19.8 13.7
2002-07-05 08:18:45 51°16.215 2°54.265 269.3 1.1 26.4 13.7
2002-07-05 08:19:45 51°16.232 2°54.28 270.2 1.2 30.3 13.7
2002-07-05 08:20:45 51°16.249 2°54.298 270.2 1.2 32.6 13.8
2002-07-05 08:21:45 51°16.264 2°54.302 253.2 0.7 349.7 13.8
2002-07-05 08:22:45 51°16.269 2°54.297 228.2 0.1 287.8 13.8
2002-07-05 08:23:45 51°16.264 2°54.295 216.3 0.5 193.6 13.7
2002-07-05 08:24:44 51°16.26 2°54.296 215 0.3 147.7 13.8
2002-07-05 08:25:45 51°16.258 2°54.303 215.7 0.3 83.7 13.7
2002-07-05 08:26:45 51°16.262 2°54.311 224 0.5 41.6 13.7
2002-07-05 08:27:45 51°16.27 2°54.319 230.7 0.6 29.9 13.7
2002-07-05 08:28:45 51°16.277 2°54.322 233.8 0.3 351.1 13.7
2002-07-05 08:29:45 51°16.277 2°54.313 232.2 0.6 255 13.7
2002-07-05 08:30:45 51°16.269 2°54.299 220.2 0.9 214.4 13.7
2002-07-05 08:31:45 51°16.254 2°54.289 215.5 0.9 196.3 13.7
2002-07-05 08:32:45 51°16.24 2°54.286 213 0.8 182 13.7
2002-07-05 08:33:45 51°16.23 2°54.286 213.8 0.4 153.1 13.7
2002-07-05 08:34:45 51°16.23 2°54.292 221.7 0.3 43 13.7
2002-07-05 08:35:45 51°16.237 2°54.299 231.8 0.6 29.5 13.7
2002-07-05 08:36:45 51°16.248 2°54.309 239.2 0.8 25.8 13.7
2002-07-05 08:37:45 51°16.259 2°54.311 242.2 0.5 343.9 13.7
2002-07-05 08:38:45 51°16.263 2°54.301 237.7 0.5 280.1 13.7
2002-07-05 08:39:45 51°16.261 2°54.285 234.2 0.8 251 13.7
2002-07-05 08:40:45 51°16.25 2°54.268 215.7 1 202.4 13.7
2002-07-05 08:41:44 51°16.23 2°54.274 190.2 1.4 152.6 13.7
2002-07-05 08:42:45 51°16.215 2°54.297 181.2 1.3 125.5 13.6
2002-07-05 08:43:45 51°16.211 2°54.327 177 1.2 83 13.6
2002-07-05 08:44:44 51°16.223 2°54.357 173.8 1.6 48 13.5
2002-07-05 08:45:44 51°16.247 2°54.385 156.5 1.8 29.1 13.5
2002-07-05 08:46:44 51°16.27 2°54.408 140.7 1.5 44.2 13.6
2002-07-05 08:47:44 51°16.279 2°54.45 147.8 1.8 85.6 13.5
2002-07-05 08:48:44 51°16.274 2°54.494 173.2 1.6 114 13.5
2002-07-05 08:49:44 51°16.261 2°54.516 206.7 0.8 153.3 13.5
2002-07-05 08:50:44 51°16.255 2°54.507 251 0.8 280.7 13.5
2002-07-05 08:51:44 51°16.257 2°54.404 261 7 264.8 13.4
2002-07-05 08:52:45 51°16.251 2°54.13 279.8 11.3 280.6 13.5
2002-07-05 08:53:44 51°16.364 2°53.876 307.2 12.7 309 13.9
2002-07-05 08:54:44 51°16.521 2°53.622 305.5 13.6 307.1 14
2002-07-05 08:55:44 51°16.655 2°53.331 301.8 13.6 303.5 13.5
2002-07-05 08:56:45 51°16.778 2°53.023 299.3 13.6 300.5 12.6
2002-07-05 08:57:44 51°16.916 2°52.752 324.5 13.8 325.6 11.2
2002-07-05 08:58:44 51°17.112 2°52.548 327.8 14.1 328.1 11.4
2002-07-05 08:59:44 51°17.316 2°52.36 337.3 14.3 337.6 12.3
2002-07-05 09:00:44 51°17.537 2°52.211 336.8 14.4 337.9 12.3
2002-07-05 09:01:45 51°17.752 2°52.034 329.8 14.3 330.7 12.3
2002-07-05 09:02:45 51°17.953 2°51.834 324 14.2 325.6 12.3
2002-07-05 09:03:44 51°18.131 2°51.599 314.2 14.1 315.9 13.1
2002-07-05 09:04:45 51°18.291 2°51.336 318.8 12.5 320 14.3
2002-07-05 09:05:45 51°18.426 2°51.219 327.2 7.3 334.2 15.3
2002-07-05 09:06:44 51°18.508 2°51.142 317.3 5.1 328.5 15.8
2002-07-05 09:07:45 51°18.556 2°51.075 284.8 2.9 308.3 15.9
2002-07-05 09:08:45 51°18.571 2°51.03 252.7 1.4 287.6 16
2002-07-05 09:09:44 51°18.567 2°51.005 217.2 0.9 221.8 15.9
2002-07-05 09:10:45 51°18.543 2°51.015 174.5 1.7 144.1 15.9
2002-07-05 09:11:45 51°18.526 2°51.045 181.2 1.3 134.1 15.8
2002-07-05 09:12:45 51°18.514 2°51.062 203.7 0.6 144.3 15.8
2002-07-05 09:13:45 51°18.509 2°51.063 220.5 0.2 196.7 15.7
2002-07-05 09:14:45 51°18.508 2°51.055 234.7 0.4 283.1 15.7
2002-07-05 09:15:45 51°18.515 2°51.036 257 1 307.8 15.7
2002-07-05 09:16:45 51°18.525 2°51.014 249.2 0.9 305.8 15.7
2002-07-05 09:17:45 51°18.531 2°51.001 230.8 0.4 298.3 15.8
2002-07-05 09:18:45 51°18.531 2°50.997 218.2 0.1 226.5 15.8
2002-07-05 09:19:45 51°18.523 2°50.993 210.3 0.7 186.7 15.8
2002-07-05 09:20:44 51°18.509 2°50.994 203.3 0.8 167.7 15.7
2002-07-05 09:21:45 51°18.495 2°51.007 185.3 1.3 147 15.6
2002-07-05 09:22:45 51°18.477 2°51.01 219.2 1 204.2 15.6
2002-07-05 09:23:45 51°18.466 2°50.983 239.2 1.4 250.3 15.6
2002-07-05 09:24:45 51°18.471 2°50.935 265 2.1 287.1 15.6
2002-07-05 09:25:45 51°18.478 2°50.879 260.8 2.2 280.1 15.7
2002-07-05 09:26:45 51°18.485 2°50.82 262 2.3 281.1 15.8
2002-07-05 09:27:45 51°18.539 2°50.747 345.7 6.4 347.8 16
2002-07-05 09:28:45 51°18.618 2°50.844 77.5 5.7 66.3 16.1
2002-07-05 09:29:45 51°18.605 2°50.961 145 4.1 123.8 15.9
2002-07-05 09:30:45 51°18.564 2°51.014 167.3 3 144 15.8
2002-07-05 09:31:45 51°18.549 2°51.047 174.3 1.3 58.3 15.6
2002-07-05 09:32:45 51°18.561 2°51.077 162.8 1.4 56.6 15.7
2002-07-05 09:33:45 51°18.569 2°51.112 158.2 1.4 67 15.8
2002-07-05 09:34:45 51°18.58 2°51.143 151.7 1.4 59.3 15.6
2002-07-05 09:35:45 51°18.555 2°51.176 189 5.4 178.6 15.5
2002-07-05 09:36:45 51°18.443 2°50.997 240.5 9.9 239.9 15.3
2002-07-05 09:37:45 51°18.424 2°50.808 292.3 6.7 294.3 15.6
2002-07-05 09:38:45 51°18.517 2°50.716 328.8 6.3 334.9 15.8
2002-07-05 09:39:45 51°18.602 2°50.649 327.8 5.4 334.6 16
2002-07-05 09:40:45 51°18.681 2°50.588 328.8 5.2 336.4 16.1
2002-07-05 09:41:45 51°18.76 2°50.536 327.7 5.1 337.6 16.1
2002-07-05 09:42:45 51°18.833 2°50.476 326 4.9 335.4 15.9
2002-07-05 09:43:45 51°18.91 2°50.427 332.7 5 340.5 15.6
2002-07-05 09:44:45 51°18.991 2°50.408 7.3 4.9 8.3 15.4
2002-07-05 09:45:45 51°19.074 2°50.416 348.2 4.9 356 15.1
2002-07-05 09:46:45 51°19.155 2°50.404 357.7 5.1 1.5 14.6
2002-07-05 09:47:45 51°19.24 2°50.399 347 5.1 353.5 14.3
2002-07-05 09:48:45 51°19.324 2°50.381 348.5 5.1 354 13.4
2002-07-05 09:49:45 51°19.409 2°50.369 345.2 5.1 352.2 13.3
2002-07-05 09:50:45 51°19.491 2°50.337 338.7 5 345.5 13.3
2002-07-05 09:51:44 51°19.575 2°50.323 355 5.3 359.6 14
2002-07-05 09:52:45 51°19.664 2°50.311 345 5.2 352.1 14.4
2002-07-05 09:53:45 51°19.748 2°50.283 337.2 5.1 345.8 15.2
2002-07-05 09:54:45 51°19.833 2°50.278 0.3 5.4 6 15.4
2002-07-05 09:55:44 51°19.925 2°50.279 359 6 3.4 15.7
2002-07-05 09:56:44 51°20.016 2°50.299 1.8 5.3 8.3 16.4
2002-07-05 09:57:44 51°20.098 2°50.301 345.3 4.7 356.3 17.2
2002-07-05 09:58:45 51°20.172 2°50.313 356.7 4.4 6.2 17.6
2002-07-05 09:59:45 51°20.246 2°50.334 6.3 4.5 13.2 18.1
2002-07-05 10:00:45 51°20.319 2°50.354 359.8 4.4 8.7 18.7
2002-07-05 10:01:45 51°20.4 2°50.325 310.7 4.9 325.3 19.7
2002-07-05 10:02:44 51°20.437 2°50.269 278.8 2.2 312.4 20.5
2002-07-05 10:03:44 51°20.456 2°50.239 263 1.3 321.2 20.8
2002-07-05 10:04:44 51°20.473 2°50.224 261 1.1 339 21.1
2002-07-05 10:05:44 51°20.493 2°50.217 272.3 1.3 354.5 21.4
2002-07-05 10:06:44 51°20.501 2°50.187 227.8 2.3 236 21.6
2002-07-05 10:07:44 51°20.422 2°50.193 167.3 6.6 158.9 20.6
2002-07-05 10:08:44 51°20.348 2°50.317 123 5.7 110.2 19.1
2002-07-05 10:09:45 51°20.35 2°50.456 70.7 5.9 66.3 18.3
2002-07-05 10:10:44 51°20.442 2°50.482 318 6.3 328.3 19.2
2002-07-05 10:11:44 51°20.467 2°50.364 258.2 4.1 269.3 20.2
2002-07-05 10:12:44 51°20.443 2°50.303 218.5 2.5 218.5 20.3
2002-07-05 10:13:45 51°20.408 2°50.305 174.3 2.2 147.9 19.8
2002-07-05 10:14:45 51°20.387 2°50.35 156.8 2.1 117.2 19.3
2002-07-05 10:15:45 51°20.379 2°50.395 159.2 1.6 99.8 19
2002-07-05 10:16:45 51°20.379 2°50.432 157 1.4 82.6 18.8
2002-07-05 10:17:45 51°20.39 2°50.465 154 1.6 43.5 18.7
2002-07-05 10:18:45 51°20.425 2°50.464 121.5 2.6 336.1 -999
2002-07-05 10:19:45 51°20.455 2°50.426 95.5 2.1 315.3 -999
2002-07-05 10:20:46 51°20.466 2°50.365 69.8 2.4 270.9 -999
2002-07-05 10:21:44 51°20.487 2°50.365 19.7 3.3 23.6 20.3
2002-07-05 10:22:44 51°20.55 2°50.326 289 4.5 303 21.2
2002-07-05 10:23:44 51°20.519 2°50.253 188.3 4.1 182.4 21.3
2002-07-05 10:24:44 51°20.444 2°50.327 157.8 5.3 143.2 20.1
2002-07-05 10:25:44 51°20.397 2°50.366 185.2 1.7 147 19.2
2002-07-05 10:26:45 51°20.382 2°50.385 189 0.9 123.1 19
2002-07-05 10:27:44 51°20.379 2°50.402 201.3 0.6 119.5 18.9
2002-07-05 10:28:44 51°20.376 2°50.402 237.2 0.5 266.9 18.8
2002-07-05 10:29:44 51°20.387 2°50.379 276.8 1.4 323.2 19
2002-07-05 10:30:44 51°20.406 2°50.358 268.2 1.3 323.7 19.4
2002-07-05 10:31:45 51°20.42 2°50.34 253 0.9 317.1 19.6
2002-07-05 10:32:44 51°20.409 2°50.317 199.3 1.7 191.2 19.5
2002-07-05 10:33:45 51°20.317 2°50.391 157.2 8.8 149.9 18.1
2002-07-05 10:34:44 51°20.177 2°50.521 159 10.3 152.3 16.8
2002-07-05 10:35:44 51°20.016 2°50.621 165.2 10.4 159.8 15.8
2002-07-05 10:36:44 51°19.855 2°50.716 165.2 10.4 160.3 13.6
2002-07-05 10:37:44 51°19.693 2°50.811 164.5 10.3 159.7 13.3
2002-07-05 10:38:44 51°19.53 2°50.905 165.3 10.4 160.4 14.6
2002-07-05 10:39:44 51°19.368 2°51.001 165 10.4 159.9 15.7
2002-07-05 10:40:44 51°19.198 2°51.099 165.5 12.2 160.7 16
2002-07-05 10:41:45 51°18.988 2°51.215 164.7 13.3 160.8 15.9
2002-07-05 10:42:45 51°18.779 2°51.335 163.2 13.4 159.3 15.3
2002-07-05 10:43:44 51°18.577 2°51.461 162.5 13.1 158.4 14.5
2002-07-05 10:44:44 51°18.371 2°51.59 163.2 13.4 159.1 13.2
2002-07-05 10:45:44 51°18.163 2°51.713 162.7 13.3 159.2 12.2
2002-07-05 10:46:44 51°17.959 2°51.837 163 12.8 159 11.5
2002-07-05 10:47:44 51°17.824 2°51.922 164 6.5 156.9 11.6
2002-07-05 10:48:44 51°17.748 2°51.981 163.5 4.3 152.1 11.7
2002-07-05 10:49:44 51°17.694 2°52.028 164.2 3.4 150.6 11.6
2002-07-05 10:50:44 51°17.649 2°52.074 162.2 3.1 145.7 11.7
2002-07-05 10:51:44 51°17.608 2°52.116 163 2.9 147.1 11.7
2002-07-05 10:52:44 51°17.509 2°52.191 162.2 11.1 157.7 11.5
2002-07-05 10:53:44 51°17.31 2°52.315 162 13.5 159.2 11.4
2002-07-05 10:54:44 51°17.103 2°52.439 163 13.3 159.9 10.8
2002-07-05 10:55:44 51°16.897 2°52.571 157.8 13.3 154.1 10.7
2002-07-05 10:56:44 51°16.695 2°52.724 158.5 13.6 155.1 11.8
2002-07-05 10:57:44 51°16.494 2°52.892 154.2 13.6 150.4 12.8
2002-07-05 10:58:44 51°16.297 2°53.069 153.5 13.8 149.7 13.3
2002-07-05 10:59:45 51°16.097 2°53.25 154.2 13.5 150.5 13.1
2002-07-05 11:00:44 51°15.902 2°53.418 155.3 13.6 152.5 12.5
2002-07-05 11:01:44 51°15.703 2°53.589 153.3 13.5 150.1 12
2002-07-05 11:02:44 51°15.515 2°53.787 149.3 13.4 145.4 11.2
2002-07-05 11:03:45 51°15.323 2°53.985 151.2 13.7 148.9 10.4
2002-07-05 11:04:45 51°15.161 2°54.147 155.5 8.7 151.3 10.1
2002-07-05 11:05:45 51°15.076 2°54.244 144.8 5.3 137.2 9.7
2002-07-05 11:06:44 51°15.029 2°54.33 140 3.9 128.1 9.6
2002-07-05 11:07:44 51°14.997 2°54.402 139.5 2.9 123 9.6
2002-07-05 11:08:45 51°14.978 2°54.456 139.3 2 116.8 9.7
2002-07-05 11:09:44 51°14.967 2°54.496 138 1.5 108.2 9.7
2002-07-05 11:10:45 51°14.962 2°54.532 138 1.2 101.3 9.9
2002-07-05 11:11:45 51°14.959 2°54.561 137.7 1 95.9 9.9
2002-07-05 11:12:45 51°14.958 2°54.586 138.8 0.9 89.2 9.9
2002-07-05 11:13:45 51°14.959 2°54.608 138 0.8 84.7 10
2002-07-05 11:14:45 51°14.961 2°54.628 137.7 0.8 78.8 9.8
2002-07-05 11:15:45 51°14.964 2°54.647 136 0.7 71.7 9.9
2002-07-05 11:16:44 51°14.968 2°54.664 134.5 0.7 69.8 9.9
2002-07-05 11:17:45 51°14.974 2°54.681 132 0.7 59.3 9.8
2002-07-05 11:18:45 51°14.981 2°54.699 126.7 0.8 57.1 9.8
2002-07-05 11:19:45 51°14.988 2°54.716 124.3 0.8 55.2 9.8
2002-07-05 11:20:45 51°14.996 2°54.732 127.3 0.8 54.2 10
2002-07-05 11:21:45 51°15.004 2°54.749 130.5 0.8 52.5 9.8
2002-07-05 11:22:45 51°15.011 2°54.764 133.8 0.7 52.3 9.6
2002-07-05 11:23:45 51°15.018 2°54.778 137 0.7 51.4 9.6
2002-07-05 11:24:44 51°15.026 2°54.792 139.5 0.7 46.6 9.5
2002-07-05 11:25:45 51°15.034 2°54.806 138.2 0.8 44.2 9.5
2002-07-05 11:26:45 51°15.043 2°54.82 134.2 0.7 42.2 9.4
2002-07-05 11:27:45 51°15.052 2°54.833 130.5 0.7 44.2 9.4
2002-07-05 11:28:45 51°15.06 2°54.847 128.3 0.7 48.2 9.4
2002-07-05 11:29:45 51°15.068 2°54.861 126.5 0.8 47.1 9.4
2002-07-05 11:30:45 51°15.075 2°54.876 124.8 0.8 51.7 9.3
2002-07-05 11:31:45 51°15.082 2°54.891 127 0.7 54.3 9.2
2002-07-05 11:32:44 51°15.087 2°54.905 130.3 0.6 60.3 9.1
2002-07-05 11:33:45 51°15.093 2°54.919 131 0.7 53.8 9.2
2002-07-05 11:34:45 51°15.1 2°54.932 132 0.6 53.9 9.2
2002-07-05 11:35:45 51°15.105 2°54.945 133.3 0.6 55.6 9.1
2002-07-05 11:36:45 51°15.111 2°54.957 134.7 0.6 54.7 9.1
2002-07-05 11:37:45 51°15.116 2°54.97 133.8 0.6 53.2 9
2002-07-05 11:38:44 51°15.121 2°54.982 133.2 0.5 57.4 9
2002-07-05 11:39:45 51°15.128 2°54.994 131.3 0.6 49.9 9
2002-07-05 11:40:45 51°15.134 2°55.006 128.7 0.6 47.6 9
2002-07-05 11:41:45 51°15.14 2°55.018 126.7 0.6 66 9.1
2002-07-05 11:42:45 51°15.137 2°55.038 149.5 1 122.6 9.1
2002-07-05 11:43:45 51°15.121 2°55.058 172.2 1.2 156.1 9.2
2002-07-05 11:44:45 51°15.098 2°55.065 189.2 1.5 180 9.2
2002-07-05 11:45:45 51°15.068 2°55.057 195.8 2 191.7 9.3
2002-07-05 11:46:44 51°15.035 2°55.049 183.2 2.2 181.6 9.5
2002-07-05 11:47:44 51°14.996 2°55.053 177.7 2.5 173.1 9.5
2002-07-05 11:48:45 51°14.952 2°55.054 186.2 2.6 182.7 9.5
2002-07-05 11:49:45 51°14.91 2°55.058 172 2.6 170.2 9.6
2002-07-05 11:50:44 51°14.868 2°55.07 179.8 2.6 177.1 9.6
2002-07-05 11:51:45 51°14.824 2°55.062 192 2.6 190.5 9.6
2002-07-05 11:52:44 51°14.79 2°55.046 199 1.9 199.6 9.6
2002-07-05 11:53:44 51°14.767 2°55.031 202.8 1.3 204.9 9.7
2002-07-05 11:54:44 51°14.751 2°55.016 206.7 0.9 213.5 9.7
2002-07-05 11:55:44 51°14.742 2°55.003 215.5 0.6 242 9.7
2002-07-05 11:56:45 51°14.741 2°54.99 232.7 0.5 287.4 9.7
2002-07-05 11:57:46 51°14.748 2°54.981 258.3 0.5 324.6 9.7
2002-07-05 11:58:45 51°14.756 2°54.974 283.2 0.6 327.7 9.7
2002-07-05 11:59:44 51°14.765 2°54.966 300.2 0.6 332 9.6
2002-07-05 12:00:45 51°14.775 2°54.958 309 0.7 331 9.6
2002-07-05 12:01:44 51°14.785 2°54.95 308.8 0.7 333.8 9.6
2002-07-05 12:02:45 51°14.795 2°54.941 302.5 0.6 319.4 9.5
2002-07-05 12:03:45 51°14.802 2°54.928 291.7 0.7 312 9.6
2002-07-05 12:04:44 51°14.809 2°54.915 285.3 0.7 310.2 9.5
2002-07-05 12:05:45 51°14.818 2°54.901 282 0.7 315.9 9.5
2002-07-05 12:06:45 51°14.825 2°54.886 277.7 0.7 308.5 9.5
2002-07-05 12:07:45 51°14.832 2°54.871 275.3 0.7 305.5 9.6
2002-07-05 12:08:44 51°14.84 2°54.856 277.8 0.8 311 9.6
2002-07-05 12:09:44 51°14.849 2°54.841 280.5 0.8 314 9.6
2002-07-05 12:10:45 51°14.859 2°54.826 282.2 0.8 314.8 9.6
2002-07-05 12:11:44 51°14.868 2°54.812 282.3 0.8 313.7 9.6
2002-07-05 12:12:44 51°14.877 2°54.797 283.2 0.8 309.7 9.5
2002-07-05 12:13:44 51°14.885 2°54.779 284.3 0.9 302.1 9.5
2002-07-05 12:14:44 51°14.893 2°54.763 283.3 0.8 308.7 9.6
2002-07-05 12:15:44 51°14.902 2°54.739 278.8 2.2 286.6 9.4
2002-07-05 12:16:45 51°14.871 2°54.633 214.8 5.3 217.2 9.6
2002-07-05 12:17:44 51°14.797 2°54.636 156.5 3.7 157.7 9.7
2002-07-05 12:18:45 51°14.764 2°54.68 133.5 2.1 129.5 9.6
2002-07-05 12:19:44 51°14.746 2°54.713 136 1.4 131.6 9.8
2002-07-05 12:20:45 51°14.732 2°54.736 136.8 1 133.2 9.7
2002-07-05 12:21:45 51°14.724 2°54.753 134.5 0.7 123.7 9.6
2002-07-05 12:22:45 51°14.721 2°54.763 133 0.3 113.4 9.6
2002-07-05 12:23:45 51°14.719 2°54.77 132.7 0.2 130.2 9.7
2002-07-05 12:24:44 51°14.716 2°54.774 131.7 0.2 119.4 9.6
2002-07-05 12:25:44 51°14.716 2°54.777 129.2 0.1 83.8 9.6
2002-07-05 12:26:44 51°14.716 2°54.782 127.8 0.2 93.1 9.6
2002-07-05 12:27:44 51°14.69 2°54.813 150.8 4.3 150.4 9.6
2002-07-05 12:28:44 51°14.565 2°54.926 150.7 10.3 150.7 9.6
2002-07-05 12:29:44 51°14.407 2°55.064 146.5 11 147.2 9.7